createdAt,value
2019-04-28T00:01:40.880Z,7.80
2019-04-28T00:04:11.553Z,7.00
2019-04-28T00:06:41.813Z,13.43
2019-04-28T00:09:12.656Z,8.73
2019-04-28T00:11:42.573Z,6.60
2019-04-28T00:14:12.872Z,6.43
2019-04-28T00:16:42.822Z,9.57
2019-04-28T00:19:12.799Z,22.17
2019-04-28T00:21:57.559Z,13.47
2019-04-28T00:24:46.313Z,4.87
2019-04-28T00:27:17.405Z,5.80
2019-04-28T00:29:47.291Z,6.30
2019-04-28T00:32:17.290Z,9.43
2019-04-28T00:34:47.255Z,11.33
2019-04-28T00:37:23.827Z,6.77
2019-04-28T00:39:53.737Z,11.70
2019-04-28T00:42:23.636Z,7.37
2019-04-28T00:44:53.578Z,7.00
2019-04-28T00:47:23.804Z,15.70
2019-04-28T00:49:53.825Z,7.40
2019-04-28T00:52:23.760Z,13.63
2019-04-28T00:54:53.981Z,8.50
2019-04-28T00:57:24.044Z,12.93
2019-04-28T00:59:58.450Z,13.77
2019-04-28T01:02:31.345Z,12.73
2019-04-28T01:05:01.778Z,16.80
2019-04-28T01:07:33.067Z,8.73
2019-04-28T01:10:03.443Z,7.70
2019-04-28T01:12:33.484Z,11.77
2019-04-28T01:15:04.922Z,9.73
2019-04-28T01:17:49.672Z,8.37
2019-04-28T01:20:19.853Z,16.43
2019-04-28T01:22:49.766Z,12.83
2019-04-28T01:25:20.356Z,13.27
2019-04-28T01:27:53.105Z,11.40
2019-04-28T01:30:59.883Z,8.90
2019-04-28T01:33:57.415Z,8.40
2019-04-28T01:36:27.302Z,10.47
2019-04-28T01:38:57.165Z,7.90
2019-04-28T01:41:27.064Z,10.17
2019-04-28T01:43:56.935Z,8.17
2019-04-28T01:46:26.829Z,6.77
2019-04-28T01:48:56.725Z,8.50
2019-04-28T01:51:26.701Z,7.10
2019-04-28T01:53:56.582Z,9.23
2019-04-28T01:56:26.439Z,8.37
2019-04-28T01:58:56.388Z,7.13
2019-04-28T02:01:26.333Z,7.20
2019-04-28T02:03:56.353Z,6.83
2019-04-28T02:06:26.230Z,7.33
2019-04-28T02:08:56.128Z,12.60
2019-04-28T02:11:26.008Z,11.90
2019-04-28T02:13:55.890Z,12.40
2019-04-28T02:16:25.840Z,8.47
2019-04-28T02:18:55.715Z,8.23
2019-04-28T02:21:43.199Z,10.37
2019-04-28T02:24:30.934Z,11.07
2019-04-28T02:27:01.623Z,9.80
2019-04-28T02:29:31.993Z,9.57
2019-04-28T02:32:02.583Z,7.90
2019-04-28T02:34:32.578Z,8.53
2019-04-28T02:37:02.460Z,8.57
2019-04-28T02:39:32.348Z,7.23
2019-04-28T02:42:02.398Z,7.40
2019-04-28T02:44:34.933Z,10.63
2019-04-28T02:47:04.045Z,8.40
2019-04-28T02:49:40.819Z,7.17
2019-04-28T02:52:20.561Z,8.63
2019-04-28T02:54:50.728Z,6.70
2019-04-28T02:57:21.142Z,7.40
2019-04-28T02:59:51.186Z,8.57
2019-04-28T03:02:21.309Z,7.70
2019-04-28T03:04:51.343Z,8.23
2019-04-28T03:07:22.007Z,8.37
2019-04-28T03:09:52.471Z,9.17
2019-04-28T03:12:22.330Z,8.70
2019-04-28T03:14:52.211Z,9.43
2019-04-28T03:17:22.235Z,9.47
2019-04-28T03:19:52.197Z,9.10
2019-04-28T03:22:22.134Z,9.60
2019-04-28T03:24:53.678Z,9.20
2019-04-28T03:27:31.324Z,10.63
2019-04-28T03:30:07.250Z,9.87
2019-04-28T03:32:52.427Z,11.10
2019-04-28T03:35:13.185Z,10.50
2019-04-28T03:37:43.404Z,9.90
2019-04-28T03:40:13.363Z,9.60
2019-04-28T03:42:43.232Z,11.30
2019-04-28T03:45:21.151Z,10.60
2019-04-28T03:47:51.128Z,10.67
2019-04-28T03:50:21.021Z,10.17
2019-04-28T03:52:51.256Z,11.47
2019-04-28T03:55:21.401Z,11.33
2019-04-28T03:57:51.313Z,11.23
2019-04-28T04:00:21.990Z,11.87
2019-04-28T04:02:52.038Z,11.90
2019-04-28T04:05:21.920Z,11.93
2019-04-28T04:07:51.792Z,11.13
2019-04-28T04:10:45.822Z,11.63
2019-04-28T04:13:23.703Z,12.97
2019-04-28T04:16:01.880Z,12.27
2019-04-28T04:18:46.253Z,11.23
2019-04-28T04:21:16.145Z,11.60
2019-04-28T04:23:46.038Z,11.93
2019-04-28T04:26:15.995Z,11.40
2019-04-28T04:28:45.886Z,11.17
2019-04-28T04:31:15.774Z,10.57
2019-04-28T04:33:45.647Z,12.20
2019-04-28T04:36:15.536Z,11.80
2019-04-28T04:38:46.426Z,10.83
2019-04-28T04:41:16.477Z,11.37
2019-04-28T04:43:46.355Z,9.60
2019-04-28T04:46:24.302Z,11.50
2019-04-28T04:48:54.177Z,11.50
2019-04-28T04:51:24.129Z,10.87
2019-04-28T04:53:54.005Z,10.40
2019-04-28T04:56:23.880Z,11.00
2019-04-28T04:58:54.013Z,11.13
2019-04-28T05:01:45.705Z,11.03
2019-04-28T05:04:29.605Z,10.93
2019-04-28T05:06:59.750Z,10.50
2019-04-28T05:09:31.124Z,9.67
2019-04-28T05:12:01.139Z,9.93
2019-04-28T05:14:31.002Z,9.87
2019-04-28T05:17:00.984Z,10.63
2019-04-28T05:19:30.844Z,10.90
2019-04-28T05:22:00.793Z,10.23
2019-04-28T05:24:46.240Z,9.37
2019-04-28T05:27:17.407Z,9.97
2019-04-28T05:29:51.134Z,10.07
2019-04-28T05:32:20.572Z,10.70
2019-04-28T05:34:52.849Z,11.03
2019-04-28T05:37:22.064Z,8.27
2019-04-28T05:39:52.552Z,9.27
2019-04-28T05:42:22.679Z,9.30
2019-04-28T05:44:52.564Z,10.40
2019-04-28T05:47:22.492Z,10.47
2019-04-28T05:49:59.878Z,10.40
2019-04-28T05:52:51.952Z,10.03
2019-04-28T05:55:26.596Z,9.07
2019-04-28T05:58:04.012Z,10.57
2019-04-28T06:01:01.763Z,11.03
2019-04-28T06:03:32.436Z,10.33
2019-04-28T06:06:02.303Z,10.70
2019-04-28T06:08:44.344Z,11.30
2019-04-28T06:11:30.637Z,13.90
2019-04-28T06:14:01.003Z,12.20
2019-04-28T06:16:30.884Z,11.97
2019-04-28T06:19:00.771Z,10.97
2019-04-28T06:21:30.779Z,13.30
2019-04-28T06:24:00.670Z,12.17
2019-04-28T06:26:30.611Z,14.33
2019-04-28T06:29:00.571Z,13.83
2019-04-28T06:31:30.489Z,14.33
2019-04-28T06:34:00.608Z,15.23
2019-04-28T06:36:30.495Z,15.03
2019-04-28T06:39:00.388Z,16.13
2019-04-28T06:41:30.343Z,14.13
2019-04-28T06:44:00.225Z,16.00
2019-04-28T06:46:30.091Z,14.60
2019-04-28T06:48:59.978Z,15.73
2019-04-28T06:51:29.946Z,13.37
2019-04-28T06:53:59.811Z,12.83
2019-04-28T06:56:29.699Z,14.33
2019-04-28T06:58:59.790Z,13.90
2019-04-28T07:01:29.692Z,13.33
2019-04-28T07:03:59.588Z,13.70
2019-04-28T07:06:29.633Z,13.20
2019-04-28T07:08:59.562Z,13.40
2019-04-28T07:11:29.475Z,13.97
2019-04-28T07:13:59.472Z,12.57
2019-04-28T07:16:29.361Z,12.47
2019-04-28T07:18:59.437Z,12.20
2019-04-28T07:21:34.380Z,11.93
2019-04-28T07:24:04.389Z,11.17
2019-04-28T07:26:34.291Z,10.23
2019-04-28T07:29:04.457Z,14.90
2019-04-28T07:31:37.199Z,12.43
2019-04-28T07:34:07.252Z,10.50
2019-04-28T07:36:37.313Z,10.40
2019-04-28T07:39:08.423Z,11.17
2019-04-28T07:41:38.394Z,9.67
2019-04-28T07:44:08.281Z,9.13
2019-04-28T07:46:38.179Z,8.67
2019-04-28T07:49:08.370Z,9.37
2019-04-28T07:51:50.467Z,7.00
2019-04-28T07:54:21.160Z,6.90
2019-04-28T07:56:51.076Z,7.00
2019-04-28T07:59:20.969Z,7.67
2019-04-28T08:01:51.314Z,6.87
2019-04-28T08:04:21.296Z,7.00
2019-04-28T08:06:51.199Z,7.40
2019-04-28T08:09:21.203Z,6.53
2019-04-28T08:11:51.402Z,7.03
2019-04-28T08:14:21.321Z,6.97
2019-04-28T08:16:51.248Z,7.33
2019-04-28T08:19:21.148Z,6.37
2019-04-28T08:21:51.057Z,5.33
2019-04-28T08:24:21.006Z,5.37
2019-04-28T08:26:51.009Z,5.10
2019-04-28T08:29:20.952Z,5.30
2019-04-28T08:31:57.728Z,5.93
2019-04-28T08:34:27.665Z,4.87
2019-04-28T08:36:57.527Z,5.90
2019-04-28T08:39:27.441Z,5.70
2019-04-28T08:41:57.303Z,6.47
2019-04-28T08:44:27.215Z,6.20
2019-04-28T08:46:57.771Z,6.53
2019-04-28T08:49:27.654Z,6.70
2019-04-28T08:51:57.538Z,5.53
2019-04-28T08:54:27.416Z,6.00
2019-04-28T08:56:57.307Z,5.57
2019-04-28T08:59:27.246Z,5.50
2019-04-28T09:01:57.135Z,5.90
2019-04-28T09:04:27.170Z,5.50
2019-04-28T09:06:57.122Z,5.87
2019-04-28T09:09:27.006Z,5.33
2019-04-28T09:11:56.919Z,4.90
2019-04-28T09:14:26.871Z,3.50
2019-04-28T09:16:56.737Z,4.40
2019-04-28T09:19:26.677Z,4.77
2019-04-28T09:21:56.558Z,4.20
2019-04-28T09:24:26.440Z,3.53
2019-04-28T09:26:56.665Z,3.40
2019-04-28T09:29:26.656Z,4.00
2019-04-28T09:31:56.652Z,3.67
2019-04-28T09:34:28.537Z,3.40
2019-04-28T09:36:58.222Z,3.57
2019-04-28T09:39:51.087Z,3.63
2019-04-28T09:42:42.358Z,3.30
2019-04-28T09:45:18.132Z,3.80
2019-04-28T09:47:48.020Z,3.97
2019-04-28T09:50:18.137Z,3.53
2019-04-28T09:52:48.847Z,5.97
2019-04-28T09:55:18.885Z,3.90
2019-04-28T09:57:48.792Z,3.73
2019-04-28T10:00:18.833Z,3.67
2019-04-28T10:02:48.991Z,4.93
2019-04-28T10:05:19.241Z,3.97
2019-04-28T10:07:49.139Z,4.10
2019-04-28T10:10:19.653Z,3.70
2019-04-28T10:12:49.533Z,4.37
2019-04-28T10:15:19.622Z,3.67
2019-04-28T10:17:49.512Z,3.93
2019-04-28T10:20:20.501Z,3.30
2019-04-28T10:22:50.487Z,6.80
2019-04-28T10:25:21.253Z,3.97
2019-04-28T10:27:51.239Z,3.57
2019-04-28T10:30:21.357Z,3.50
2019-04-28T10:32:51.486Z,4.50
2019-04-28T10:35:21.748Z,7.80
2019-04-28T10:37:51.609Z,5.60
2019-04-28T10:40:39.204Z,4.87
2019-04-28T10:43:09.342Z,7.93
2019-04-28T10:45:49.587Z,5.07
2019-04-28T10:48:19.600Z,3.77
2019-04-28T10:50:49.529Z,5.90
2019-04-28T10:53:19.955Z,4.13
2019-04-28T10:55:49.808Z,3.33
2019-04-28T10:58:19.684Z,3.63
2019-04-28T11:00:49.597Z,3.20
2019-04-28T11:03:19.470Z,3.37
2019-04-28T11:05:49.344Z,2.73
2019-04-28T11:08:30.160Z,3.10
2019-04-28T11:11:03.947Z,3.80
2019-04-28T11:13:33.847Z,2.77
2019-04-28T11:16:04.491Z,3.17
2019-04-28T11:18:35.027Z,2.83
2019-04-28T11:21:05.692Z,3.00
2019-04-28T11:23:36.338Z,2.70
2019-04-28T11:26:06.938Z,2.33
2019-04-28T11:28:37.915Z,3.13
2019-04-28T11:31:08.672Z,2.80
2019-04-28T11:33:45.861Z,2.40
2019-04-28T11:36:18.391Z,3.77
2019-04-28T11:38:49.013Z,5.90
2019-04-28T11:41:19.561Z,5.20
2019-04-28T11:43:50.088Z,3.53
2019-04-28T11:46:22.360Z,5.97
2019-04-28T11:48:52.872Z,5.40
2019-04-28T11:51:23.400Z,6.07
2019-04-28T11:53:53.907Z,6.67
2019-04-28T11:56:24.401Z,4.80
2019-04-28T11:58:54.874Z,4.90
2019-04-28T12:01:25.678Z,4.00
2019-04-28T12:03:59.570Z,3.60
2019-04-28T12:06:30.077Z,4.23
2019-04-28T12:09:16.075Z,3.67
2019-04-28T12:11:49.449Z,3.47
2019-04-28T12:14:24.332Z,2.50
2019-04-28T12:17:14.421Z,2.67
2019-04-28T12:19:47.678Z,1.83
2019-04-28T12:22:18.306Z,2.50
2019-04-28T12:24:48.879Z,2.60
2019-04-28T12:27:19.397Z,2.77
2019-04-28T12:29:49.933Z,2.30
2019-04-28T12:32:20.513Z,2.77
2019-04-28T12:34:51.018Z,2.70
2019-04-28T12:37:20.851Z,2.80
2019-04-28T12:39:50.785Z,3.00
2019-04-28T12:42:20.700Z,2.60
2019-04-28T12:44:50.602Z,2.53
2019-04-28T12:47:20.515Z,2.40
2019-04-28T12:49:55.392Z,2.40
2019-04-28T12:52:25.339Z,2.50
2019-04-28T12:54:55.468Z,2.63
2019-04-28T12:57:25.361Z,2.50
2019-04-28T13:00:01.226Z,2.30
2019-04-28T13:02:38.905Z,2.63
2019-04-28T13:05:12.639Z,2.60
2019-04-28T13:07:42.561Z,2.50
2019-04-28T13:10:12.932Z,2.43
2019-04-28T13:12:42.842Z,2.60
2019-04-28T13:15:13.546Z,2.20
2019-04-28T13:17:43.471Z,2.23
2019-04-28T13:20:14.023Z,2.13
2019-04-28T13:22:44.167Z,1.70
2019-04-28T13:25:14.762Z,1.80
2019-04-28T13:27:45.344Z,1.97
2019-04-28T13:30:16.213Z,2.30
2019-04-28T13:32:46.775Z,1.93
2019-04-28T13:35:17.667Z,2.30
2019-04-28T13:37:48.409Z,1.80
2019-04-28T13:40:25.315Z,1.50
2019-04-28T13:42:55.840Z,1.87
2019-04-28T13:45:26.836Z,1.70
2019-04-28T13:47:57.379Z,1.73
2019-04-28T13:50:32.046Z,1.63
2019-04-28T13:53:02.648Z,4.33
2019-04-28T13:55:54.652Z,1.47
2019-04-28T13:58:29.408Z,1.60
2019-04-28T14:01:21.740Z,1.60
2019-04-28T14:04:09.633Z,1.50
2019-04-28T14:06:43.219Z,1.50
2019-04-28T14:09:19.550Z,1.70
2019-04-28T14:11:50.076Z,1.37
2019-04-28T14:14:20.654Z,1.20
2019-04-28T14:16:51.223Z,1.57
2019-04-28T14:19:21.746Z,1.50
2019-04-28T14:21:52.311Z,1.70
2019-04-28T14:24:22.872Z,1.50
2019-04-28T14:26:53.460Z,2.03
2019-04-28T14:29:24.024Z,1.57
2019-04-28T14:31:54.693Z,1.53
2019-04-28T14:34:24.548Z,1.30
2019-04-28T14:36:54.465Z,1.30
2019-04-28T14:39:24.477Z,1.33
2019-04-28T14:41:54.492Z,1.53
2019-04-28T14:44:24.438Z,1.30
2019-04-28T14:46:54.342Z,1.20
2019-04-28T14:49:24.227Z,1.40
2019-04-28T14:51:54.247Z,1.30
2019-04-28T14:54:24.144Z,1.57
2019-04-28T14:56:54.241Z,1.63
2019-04-28T14:59:24.193Z,1.33
2019-04-28T15:02:13.124Z,1.20
2019-04-28T15:05:00.670Z,1.53
2019-04-28T15:07:48.229Z,1.30
2019-04-28T15:10:28.666Z,1.70
2019-04-28T15:12:58.689Z,1.30
2019-04-28T15:15:28.937Z,1.40
2019-04-28T15:17:59.027Z,1.60
2019-04-28T15:20:28.962Z,1.10
2019-04-28T15:22:59.066Z,1.20
2019-04-28T15:25:28.964Z,1.10
2019-04-28T15:27:59.529Z,1.00
2019-04-28T15:30:30.058Z,1.50
2019-04-28T15:32:59.985Z,1.10
2019-04-28T15:35:30.717Z,1.10
2019-04-28T15:38:00.673Z,1.00
2019-04-28T15:40:30.632Z,1.10
2019-04-28T15:43:00.609Z,1.10
2019-04-28T15:45:30.566Z,1.10
2019-04-28T15:48:00.740Z,1.20
2019-04-28T15:50:30.626Z,1.00
2019-04-28T15:53:00.572Z,1.00
2019-04-28T15:55:36.684Z,0.80
2019-04-28T15:58:24.181Z,1.00
2019-04-28T16:00:54.160Z,1.10
2019-04-28T16:03:24.057Z,1.00
2019-04-28T16:05:53.925Z,0.90
2019-04-28T16:08:23.839Z,1.10
2019-04-28T16:10:54.138Z,0.77
2019-04-28T16:13:24.643Z,1.00
2019-04-28T16:15:55.174Z,1.00
2019-04-28T16:18:25.843Z,1.30
2019-04-28T16:20:56.206Z,1.60
2019-04-28T16:23:26.495Z,1.10
2019-04-28T16:25:56.657Z,1.20
2019-04-28T16:28:26.597Z,1.50
2019-04-28T16:30:56.748Z,1.30
2019-04-28T16:33:26.692Z,1.30
2019-04-28T16:35:56.578Z,1.50
2019-04-28T16:38:26.475Z,2.60
2019-04-28T16:40:56.622Z,1.20
2019-04-28T16:43:26.630Z,1.30
2019-04-28T16:45:56.593Z,1.20
2019-04-28T16:48:26.668Z,1.20
2019-04-28T16:50:57.012Z,1.10
2019-04-28T16:53:26.895Z,1.20
2019-04-28T16:56:11.640Z,0.93
2019-04-28T16:58:48.628Z,1.00
2019-04-28T17:01:49.451Z,1.10
2019-04-28T17:04:19.431Z,1.30
2019-04-28T17:06:49.337Z,1.40
2019-04-28T17:09:19.538Z,1.40
2019-04-28T17:11:49.445Z,1.20
2019-04-28T17:14:19.486Z,1.80
2019-04-28T17:16:49.631Z,1.30
2019-04-28T17:19:19.590Z,1.30
2019-04-28T17:21:49.522Z,1.53
2019-04-28T17:24:19.456Z,1.30
2019-04-28T17:26:49.352Z,1.40
2019-04-28T17:29:19.222Z,1.50
2019-04-28T17:31:49.348Z,1.23
2019-04-28T17:34:19.307Z,1.40
2019-04-28T17:36:49.211Z,1.20
2019-04-28T17:39:21.869Z,1.40
2019-04-28T17:41:52.590Z,1.10
2019-04-28T17:44:23.296Z,1.20
2019-04-28T17:46:53.584Z,1.00
2019-04-28T17:49:29.442Z,1.33
2019-04-28T17:51:59.769Z,1.30
2019-04-28T17:54:29.645Z,1.50
2019-04-28T17:56:59.527Z,1.30
2019-04-28T17:59:29.470Z,1.43
2019-04-28T18:02:33.461Z,1.37
2019-04-28T18:05:13.898Z,1.30
2019-04-28T18:07:44.522Z,1.57
2019-04-28T18:10:14.606Z,1.60
2019-04-28T18:12:44.569Z,1.47
2019-04-28T18:15:24.802Z,1.30
2019-04-28T18:18:03.163Z,1.30
2019-04-28T18:20:33.028Z,1.60
2019-04-28T18:23:02.927Z,2.00
2019-04-28T18:25:32.949Z,1.80
2019-04-28T18:28:02.824Z,1.60
2019-04-28T18:30:35.264Z,1.10
2019-04-28T18:33:22.956Z,1.53
2019-04-28T18:35:57.205Z,1.50
2019-04-28T18:38:36.382Z,1.83
2019-04-28T18:41:25.233Z,1.77
2019-04-28T18:44:03.935Z,1.70
2019-04-28T18:46:33.871Z,1.33
2019-04-28T18:49:03.924Z,1.50
2019-04-28T18:51:33.904Z,1.53
2019-04-28T18:54:03.876Z,1.60
2019-04-28T18:56:33.793Z,1.73
2019-04-28T18:59:03.840Z,1.50
2019-04-28T19:01:46.059Z,1.83
2019-04-28T19:04:15.950Z,1.40
2019-04-28T19:06:45.853Z,1.60
2019-04-28T19:09:26.696Z,1.93
2019-04-28T19:12:15.579Z,1.70
2019-04-28T19:14:54.564Z,1.60
2019-04-28T19:17:39.636Z,2.13
2019-04-28T19:20:10.008Z,2.00
2019-04-28T19:22:46.901Z,2.03
2019-04-28T19:25:16.780Z,2.13
2019-04-28T19:27:46.663Z,1.70
2019-04-28T19:30:16.750Z,1.90
2019-04-28T19:32:46.866Z,2.07
2019-04-28T19:35:16.743Z,2.67
2019-04-28T19:37:46.607Z,2.20
2019-04-28T19:40:16.672Z,2.63
2019-04-28T19:42:46.778Z,2.10
2019-04-28T19:45:18.754Z,2.50
2019-04-28T19:47:48.660Z,2.50
2019-04-28T19:50:18.547Z,2.01
2019-04-28T19:52:48.488Z,2.40
2019-04-28T19:55:22.319Z,2.40
2019-04-28T19:58:10.675Z,2.10
2019-04-28T20:00:51.139Z,2.10
2019-04-28T20:03:22.805Z,2.50
2019-04-28T20:05:52.799Z,2.53
2019-04-28T20:08:22.772Z,2.43
2019-04-28T20:10:52.779Z,2.37
2019-04-28T20:13:22.693Z,2.00
2019-04-28T20:15:52.586Z,1.77
2019-04-28T20:18:22.498Z,2.33
2019-04-28T20:20:52.831Z,2.30
2019-04-28T20:23:22.731Z,2.43
2019-04-28T20:25:52.617Z,2.20
2019-04-28T20:28:23.214Z,2.10
2019-04-28T20:30:54.161Z,2.20
2019-04-28T20:33:24.920Z,2.10
2019-04-28T20:35:58.895Z,2.20
2019-04-28T20:38:31.277Z,2.23
2019-04-28T20:41:30.086Z,1.87
2019-04-28T20:44:00.653Z,2.30
2019-04-28T20:46:30.924Z,2.30
2019-04-28T20:49:01.224Z,2.80
2019-04-28T20:51:31.469Z,2.10
2019-04-28T20:54:01.423Z,2.60
2019-04-28T20:56:31.346Z,2.33
2019-04-28T20:59:01.550Z,2.30
2019-04-28T21:01:31.576Z,2.30
2019-04-28T21:04:01.648Z,2.43
2019-04-28T21:06:32.279Z,2.93
2019-04-28T21:09:02.420Z,2.20
2019-04-28T21:11:32.299Z,2.57
2019-04-28T21:14:03.875Z,1.90
2019-04-28T21:16:34.135Z,2.50
2019-04-28T21:19:04.440Z,2.23
2019-04-28T21:21:34.588Z,2.57
2019-04-28T21:24:04.701Z,2.47
2019-04-28T21:26:34.901Z,2.73
2019-04-28T21:29:04.865Z,2.07
2019-04-28T21:31:35.437Z,2.97
2019-04-28T21:34:05.873Z,2.30
2019-04-28T21:36:35.767Z,2.57
2019-04-28T21:39:09.138Z,2.77
2019-04-28T21:41:39.138Z,2.87
2019-04-28T21:44:20.112Z,2.97
2019-04-28T21:46:59.324Z,3.00
2019-04-28T21:49:31.544Z,3.20
2019-04-28T21:52:01.557Z,3.37
2019-04-28T21:54:31.455Z,3.30
2019-04-28T21:57:01.878Z,3.30
2019-04-28T21:59:32.332Z,2.50
2019-04-28T22:02:02.299Z,2.80
2019-04-28T22:04:32.584Z,3.20
2019-04-28T22:07:03.225Z,3.20
2019-04-28T22:09:33.166Z,3.10
2019-04-28T22:12:03.090Z,3.20
2019-04-28T22:14:33.265Z,2.70
2019-04-28T22:17:03.270Z,2.80
2019-04-28T22:19:33.181Z,2.73
2019-04-28T22:22:03.194Z,3.13
2019-04-28T22:24:40.940Z,2.90
2019-04-28T22:27:12.926Z,3.43
2019-04-28T22:29:42.899Z,2.90
2019-04-28T22:32:12.803Z,2.90
2019-04-28T22:34:42.675Z,3.20
2019-04-28T22:37:12.525Z,3.17
2019-04-28T22:39:42.412Z,2.73
2019-04-28T22:42:12.483Z,3.20
2019-04-28T22:44:42.373Z,2.60
2019-04-28T22:47:12.267Z,2.80
2019-04-28T22:49:42.159Z,3.00
2019-04-28T22:52:12.041Z,3.13
2019-04-28T22:55:00.883Z,3.00
2019-04-28T22:57:52.921Z,3.10
2019-04-28T23:00:46.529Z,3.03
2019-04-28T23:03:27.257Z,3.23
2019-04-28T23:05:58.420Z,3.37
2019-04-28T23:08:28.560Z,3.50
2019-04-28T23:11:00.060Z,3.20
2019-04-28T23:13:30.075Z,3.20
2019-04-28T23:16:00.226Z,3.30
2019-04-28T23:18:38.985Z,3.00
2019-04-28T23:21:17.356Z,3.13
2019-04-28T23:23:47.246Z,3.00
2019-04-28T23:26:17.197Z,3.83
2019-04-28T23:28:47.075Z,3.40
2019-04-28T23:31:16.938Z,3.47
2019-04-28T23:33:46.805Z,3.10
2019-04-28T23:36:16.676Z,3.43
2019-04-28T23:38:46.544Z,3.97
2019-04-28T23:41:24.705Z,3.73
2019-04-28T23:43:54.575Z,3.20
2019-04-28T23:46:26.096Z,3.10
2019-04-28T23:48:56.233Z,3.60
2019-04-28T23:51:38.928Z,3.10
2019-04-28T23:54:08.791Z,3.10
2019-04-28T23:56:38.662Z,3.27
2019-04-28T23:59:08.610Z,3.53
